sensor_id;sensor_type;location;lat;lon;timestamp;pressure;altitude;pressure_sealevel;temperature;humidity
26563;BME280;14217;50.986;5.826;2023-12-20T00:01:26;100985.09;;;17.93;46.74
26563;BME280;14217;50.986;5.826;2023-12-20T00:06:29;101001.81;;;17.95;46.71
26563;BME280;14217;50.986;5.826;2023-12-20T00:11:31;101007.41;;;17.87;46.93
26563;BME280;14217;50.986;5.826;2023-12-20T00:16:33;101016.09;;;17.91;46.65
26563;BME280;14217;50.986;5.826;2023-12-20T00:21:35;101039.16;;;17.89;46.58
26563;BME280;14217;50.986;5.826;2023-12-20T00:26:37;101027.56;;;17.92;46.83
26563;BME280;14217;50.986;5.826;2023-12-20T00:31:39;101051.50;;;17.90;46.87
26563;BME280;14217;50.986;5.826;2023-12-20T00:36:41;101062.97;;;17.91;46.81
26563;BME280;14217;50.986;5.826;2023-12-20T00:41:43;101061.31;;;17.88;46.71
26563;BME280;14217;50.986;5.826;2023-12-20T00:46:45;101068.28;;;17.91;46.57
26563;BME280;14217;50.986;5.826;2023-12-20T00:51:47;101048.06;;;17.88;46.52
26563;BME280;14217;50.986;5.826;2023-12-20T00:56:52;101051.56;;;17.88;46.63
26563;BME280;14217;50.986;5.826;2023-12-20T01:01:54;101078.06;;;17.88;46.75
26563;BME280;14217;50.986;5.826;2023-12-20T01:06:56;101065.81;;;17.86;46.55
26563;BME280;14217;50.986;5.826;2023-12-20T01:11:58;101078.88;;;17.91;46.41
26563;BME280;14217;50.986;5.826;2023-12-20T01:17:01;101062.16;;;17.88;46.64
26563;BME280;14217;50.986;5.826;2023-12-20T01:22:04;101056.00;;;17.88;46.51
26563;BME280;14217;50.986;5.826;2023-12-20T01:27:06;101042.75;;;17.88;46.68
26563;BME280;14217;50.986;5.826;2023-12-20T01:32:08;101059.50;;;17.88;46.45
26563;BME280;14217;50.986;5.826;2023-12-20T01:37:10;101049.75;;;17.89;46.29
26563;BME280;14217;50.986;5.826;2023-12-20T01:42:12;101059.47;;;17.90;46.47
26563;BME280;14217;50.986;5.826;2023-12-20T01:47:14;101063.97;;;17.88;46.33
26563;BME280;14217;50.986;5.826;2023-12-20T01:52:16;101063.88;;;17.90;46.39
26563;BME280;14217;50.986;5.826;2023-12-20T01:57:19;101076.22;;;17.91;46.47
26563;BME280;14217;50.986;5.826;2023-12-20T02:02:21;101076.28;;;17.89;46.16
26563;BME280;14217;50.986;5.826;2023-12-20T02:07:23;101073.66;;;17.87;46.13
26563;BME280;14217;50.986;5.826;2023-12-20T02:12:25;101069.13;;;17.91;46.36
26563;BME280;14217;50.986;5.826;2023-12-20T02:17:27;101070.97;;;17.89;46.08
26563;BME280;14217;50.986;5.826;2023-12-20T02:22:29;101072.53;;;17.95;46.21
26563;BME280;14217;50.986;5.826;2023-12-20T02:27:32;101100.09;;;17.91;45.96
26563;BME280;14217;50.986;5.826;2023-12-20T02:32:34;101100.13;;;17.89;46.04
26563;BME280;14217;50.986;5.826;2023-12-20T02:37:36;101093.91;;;17.90;46.26
26563;BME280;14217;50.986;5.826;2023-12-20T02:42:38;101089.53;;;17.89;46.24
26563;BME280;14217;50.986;5.826;2023-12-20T02:47:40;101080.59;;;17.92;45.85
26563;BME280;14217;50.986;5.826;2023-12-20T02:52:44;101078.03;;;17.90;46.14
26563;BME280;14217;50.986;5.826;2023-12-20T02:57:47;101100.94;;;17.91;45.96
26563;BME280;14217;50.986;5.826;2023-12-20T03:02:49;101102.78;;;17.89;45.99
26563;BME280;14217;50.986;5.826;2023-12-20T03:07:51;101087.69;;;17.91;45.69
26563;BME280;14217;50.986;5.826;2023-12-20T03:12:53;101083.19;;;17.93;45.68
26563;BME280;14217;50.986;5.826;2023-12-20T03:17:55;101076.22;;;17.91;45.93
26563;BME280;14217;50.986;5.826;2023-12-20T03:22:57;101076.16;;;17.92;45.56
26563;BME280;14217;50.986;5.826;2023-12-20T03:28:00;101092.97;;;17.91;45.65
26563;BME280;14217;50.986;5.826;2023-12-20T03:33:02;101082.19;;;17.96;45.51
26563;BME280;14217;50.986;5.826;2023-12-20T03:38:04;101078.88;;;17.91;45.62
26563;BME280;14217;50.986;5.826;2023-12-20T03:43:06;101077.06;;;17.91;45.84
26563;BME280;14217;50.986;5.826;2023-12-20T03:48:08;101080.53;;;17.93;45.60
26563;BME280;14217;50.986;5.826;2023-12-20T03:53:10;101080.47;;;17.95;45.64
26563;BME280;14217;50.986;5.826;2023-12-20T03:58:12;101067.28;;;17.93;45.75
26563;BME280;14217;50.986;5.826;2023-12-20T04:03:14;101064.59;;;17.95;45.50
26563;BME280;14217;50.986;5.826;2023-12-20T04:08:16;101058.53;;;17.91;45.77
26563;BME280;14217;50.986;5.826;2023-12-20T04:13:18;101063.03;;;17.89;45.60
26563;BME280;14217;50.986;5.826;2023-12-20T04:18:21;101083.25;;;17.92;45.67
26563;BME280;14217;50.986;5.826;2023-12-20T04:23:23;101079.72;;;17.91;45.66
26563;BME280;14217;50.986;5.826;2023-12-20T04:28:25;101071.81;;;17.90;45.56
26563;BME280;14217;50.986;5.826;2023-12-20T04:33:27;101072.72;;;17.90;45.30
26563;BME280;14217;50.986;5.826;2023-12-20T04:38:29;101077.88;;;17.93;45.54
26563;BME280;14217;50.986;5.826;2023-12-20T04:43:31;101099.09;;;17.93;45.18
26563;BME280;14217;50.986;5.826;2023-12-20T04:48:33;101085.97;;;17.90;45.50
26563;BME280;14217;50.986;5.826;2023-12-20T04:53:35;101078.91;;;17.89;45.54
26563;BME280;14217;50.986;5.826;2023-12-20T04:58:37;101085.84;;;17.93;45.18
26563;BME280;14217;50.986;5.826;2023-12-20T05:03:39;101083.31;;;17.90;45.12
26563;BME280;14217;50.986;5.826;2023-12-20T05:08:41;101089.53;;;17.89;45.09
26563;BME280;14217;50.986;5.826;2023-12-20T05:13:43;101091.31;;;17.88;45.09
26563;BME280;14217;50.986;5.826;2023-12-20T05:18:50;101079.84;;;17.88;45.10
26563;BME280;14217;50.986;5.826;2023-12-20T05:23:54;101075.38;;;17.90;45.33
26563;BME280;14217;50.986;5.826;2023-12-20T05:28:56;101060.41;;;17.87;45.27
26563;BME280;14217;50.986;5.826;2023-12-20T05:33:58;101065.00;;;17.84;45.10
26563;BME280;14217;50.986;5.826;2023-12-20T05:39:00;101064.81;;;17.88;45.14
26563;BME280;14217;50.986;5.826;2023-12-20T05:44:02;101070.91;;;17.91;45.22
26563;BME280;14217;50.986;5.826;2023-12-20T05:49:04;101092.31;;;17.86;45.19
26563;BME280;14217;50.986;5.826;2023-12-20T05:54:07;101090.38;;;17.90;45.20
26563;BME280;14217;50.986;5.826;2023-12-20T05:59:09;101084.13;;;17.92;44.84
26563;BME280;14217;50.986;5.826;2023-12-20T06:04:11;101074.44;;;17.91;45.17
26563;BME280;14217;50.986;5.826;2023-12-20T06:09:13;101071.81;;;17.90;44.99
26563;BME280;14217;50.986;5.826;2023-12-20T06:14:16;101084.22;;;17.89;44.92
26563;BME280;14217;50.986;5.826;2023-12-20T06:19:19;101092.59;;;17.77;44.14
26563;BME280;14217;50.986;5.826;2023-12-20T06:24:21;101090.09;;;17.74;43.98
26563;BME280;14217;50.986;5.826;2023-12-20T06:29:23;101100.78;;;17.71;43.85
26563;BME280;14217;50.986;5.826;2023-12-20T06:34:25;101107.81;;;17.72;43.78
26563;BME280;14217;50.986;5.826;2023-12-20T06:39:27;101110.66;;;17.67;43.69
26563;BME280;14217;50.986;5.826;2023-12-20T06:44:30;101105.22;;;17.70;43.84
26563;BME280;14217;50.986;5.826;2023-12-20T06:49:33;101108.91;;;17.66;44.07
26563;BME280;14217;50.986;5.826;2023-12-20T06:54:35;101122.19;;;17.64;44.40
26563;BME280;14217;50.986;5.826;2023-12-20T06:59:41;101108.13;;;17.62;45.52
26563;BME280;14217;50.986;5.826;2023-12-20T07:04:43;101110.47;;;17.72;45.74
26563;BME280;14217;50.986;5.826;2023-12-20T07:09:45;101112.94;;;17.76;45.55
26563;BME280;14217;50.986;5.826;2023-12-20T07:14:47;101097.09;;;17.75;45.73
26563;BME280;14217;50.986;5.826;2023-12-20T07:19:49;101093.53;;;17.76;46.10
26563;BME280;14217;50.986;5.826;2023-12-20T07:24:51;101089.38;;;17.68;46.23
26563;BME280;14217;50.986;5.826;2023-12-20T07:29:56;101084.25;;;17.64;46.02
26563;BME280;14217;50.986;5.826;2023-12-20T07:34:58;101092.19;;;17.64;45.98
26563;BME280;14217;50.986;5.826;2023-12-20T07:40:01;101092.38;;;17.59;46.15
26563;BME280;14217;50.986;5.826;2023-12-20T07:45:03;101098.88;;;17.74;46.33
26563;BME280;14217;50.986;5.826;2023-12-20T07:50:05;101096.06;;;17.79;46.69
26563;BME280;14217;50.986;5.826;2023-12-20T07:55:08;101097.84;;;17.78;46.81
26563;BME280;14217;50.986;5.826;2023-12-20T08:00:10;101112.91;;;17.78;46.75
26563;BME280;14217;50.986;5.826;2023-12-20T08:05:13;101113.63;;;17.81;46.34
26563;BME280;14217;50.986;5.826;2023-12-20T08:10:17;101095.06;;;17.83;46.31
26563;BME280;14217;50.986;5.826;2023-12-20T08:15:21;101083.63;;;17.81;46.10
26563;BME280;14217;50.986;5.826;2023-12-20T08:20:23;101087.25;;;17.78;46.02
26563;BME280;14217;50.986;5.826;2023-12-20T08:25:40;101087.13;;;17.81;45.78
26563;BME280;14217;50.986;5.826;2023-12-20T08:30:42;101103.00;;;17.83;45.46
26563;BME280;14217;50.986;5.826;2023-12-20T08:35:44;101116.97;;;17.88;45.39
26563;BME280;14217;50.986;5.826;2023-12-20T08:40:46;101112.63;;;17.85;45.09
26563;BME280;14217;50.986;5.826;2023-12-20T08:45:48;101113.63;;;17.83;45.20
26563;BME280;14217;50.986;5.826;2023-12-20T08:50:50;101110.97;;;17.83;45.11
26563;BME280;14217;50.986;5.826;2023-12-20T08:55:54;101110.06;;;17.84;45.25
26563;BME280;14217;50.986;5.826;2023-12-20T09:00:56;101116.25;;;17.83;45.18
26563;BME280;14217;50.986;5.826;2023-12-20T09:05:59;101109.25;;;17.80;45.05
26563;BME280;14217;50.986;5.826;2023-12-20T09:11:01;101109.22;;;17.82;44.90
26563;BME280;14217;50.986;5.826;2023-12-20T09:16:04;101103.97;;;17.80;44.77
26563;BME280;14217;50.986;5.826;2023-12-20T09:21:06;101086.25;;;17.81;44.82
26563;BME280;14217;50.986;5.826;2023-12-20T09:26:08;101080.16;;;17.79;44.73
26563;BME280;14217;50.986;5.826;2023-12-20T09:31:11;101081.03;;;17.79;44.66
26563;BME280;14217;50.986;5.826;2023-12-20T09:36:13;101081.81;;;17.83;44.43
26563;BME280;14217;50.986;5.826;2023-12-20T09:41:15;101082.72;;;17.82;44.66
26563;BME280;14217;50.986;5.826;2023-12-20T09:46:20;101093.31;;;17.82;44.24
26563;BME280;14217;50.986;5.826;2023-12-20T09:51:28;101091.66;;;17.79;44.20
26563;BME280;14217;50.986;5.826;2023-12-20T09:56:31;101107.44;;;17.82;44.09
26563;BME280;14217;50.986;5.826;2023-12-20T10:01:34;101096.19;;;17.76;44.19
26563;BME280;14217;50.986;5.826;2023-12-20T10:06:36;101088.91;;;17.82;44.21
26563;BME280;14217;50.986;5.826;2023-12-20T10:11:38;101086.19;;;17.84;43.88
26563;BME280;14217;50.986;5.826;2023-12-20T10:16:41;101080.06;;;17.82;44.16
26563;BME280;14217;50.986;5.826;2023-12-20T10:21:43;101066.75;;;17.83;43.76
26563;BME280;14217;50.986;5.826;2023-12-20T10:26:46;101065.03;;;17.82;43.85
26563;BME280;14217;50.986;5.826;2023-12-20T10:31:48;101068.75;;;17.77;43.82
26563;BME280;14217;50.986;5.826;2023-12-20T10:36:52;101072.38;;;17.74;43.81
26563;BME280;14217;50.986;5.826;2023-12-20T10:41:54;101074.81;;;17.80;43.63
26563;BME280;14217;50.986;5.826;2023-12-20T10:46:56;101068.56;;;17.83;43.88
26563;BME280;14217;50.986;5.826;2023-12-20T10:52:02;101071.41;;;17.77;44.02
26563;BME280;14217;50.986;5.826;2023-12-20T10:57:05;101056.44;;;17.76;43.87
26563;BME280;14217;50.986;5.826;2023-12-20T11:02:08;101046.81;;;17.73;43.65
26563;BME280;14217;50.986;5.826;2023-12-20T11:12:25;101031.63;;;17.77;43.75
26563;BME280;14217;50.986;5.826;2023-12-20T11:17:31;101036.84;;;17.80;43.72
26563;BME280;14217;50.986;5.826;2023-12-20T11:22:34;101039.59;;;17.77;43.50
26563;BME280;14217;50.986;5.826;2023-12-20T11:27:42;101037.88;;;17.76;43.65
26563;BME280;14217;50.986;5.826;2023-12-20T11:32:50;101029.94;;;17.76;43.52
26563;BME280;14217;50.986;5.826;2023-12-20T11:37:52;101028.28;;;17.73;43.46
26563;BME280;14217;50.986;5.826;2023-12-20T11:42:54;101030.84;;;17.75;43.65
26563;BME280;14217;50.986;5.826;2023-12-20T11:47:57;101022.06;;;17.73;43.69
26563;BME280;14217;50.986;5.826;2023-12-20T11:52:59;101016.63;;;17.77;43.53
26563;BME280;14217;50.986;5.826;2023-12-20T11:58:01;101007.78;;;17.77;43.30
26563;BME280;14217;50.986;5.826;2023-12-20T12:03:04;101004.22;;;17.78;43.49
26563;BME280;14217;50.986;5.826;2023-12-20T12:08:06;101009.59;;;17.76;43.43
26563;BME280;14217;50.986;5.826;2023-12-20T12:13:09;100993.72;;;17.75;43.47
26563;BME280;14217;50.986;5.826;2023-12-20T12:18:16;100992.94;;;17.73;43.95
26563;BME280;14217;50.986;5.826;2023-12-20T12:23:24;100990.50;;;17.66;44.12
26563;BME280;14217;50.986;5.826;2023-12-20T12:28:26;100981.94;;;17.60;43.87
26563;BME280;14217;50.986;5.826;2023-12-20T12:33:30;100975.56;;;17.65;44.05
26563;BME280;14217;50.986;5.826;2023-12-20T12:38:32;100957.91;;;17.64;43.92
26563;BME280;14217;50.986;5.826;2023-12-20T12:43:34;100957.66;;;17.71;44.02
26563;BME280;14217;50.986;5.826;2023-12-20T12:48:37;100964.28;;;17.84;44.06
26563;BME280;14217;50.986;5.826;2023-12-20T12:53:41;100973.75;;;17.90;44.32
26563;BME280;14217;50.986;5.826;2023-12-20T12:58:43;100968.34;;;17.93;44.68
26563;BME280;14217;50.986;5.826;2023-12-20T13:03:45;100969.88;;;17.98;45.27
26563;BME280;14217;50.986;5.826;2023-12-20T13:08:47;100961.94;;;17.98;45.29
26563;BME280;14217;50.986;5.826;2023-12-20T13:13:50;100947.94;;;17.95;45.38
26563;BME280;14217;50.986;5.826;2023-12-20T13:18:52;100934.72;;;17.93;45.35
26563;BME280;14217;50.986;5.826;2023-12-20T13:23:54;100930.38;;;17.92;45.34
26563;BME280;14217;50.986;5.826;2023-12-20T13:28:56;100914.13;;;18.00;45.18
26563;BME280;14217;50.986;5.826;2023-12-20T13:33:59;100909.78;;;17.99;45.24
26563;BME280;14217;50.986;5.826;2023-12-20T13:39:03;100907.97;;;17.99;45.15
26563;BME280;14217;50.986;5.826;2023-12-20T13:44:06;100902.06;;;17.93;45.14
26563;BME280;14217;50.986;5.826;2023-12-20T13:49:08;100889.81;;;17.90;45.36
26563;BME280;14217;50.986;5.826;2023-12-20T13:54:11;100877.16;;;17.97;45.02
26563;BME280;14217;50.986;5.826;2023-12-20T13:59:13;100869.47;;;17.91;45.11
26563;BME280;14217;50.986;5.826;2023-12-20T14:04:16;100840.97;;;17.96;44.68
26563;BME280;14217;50.986;5.826;2023-12-20T14:09:39;100846.19;;;17.97;45.13
26563;BME280;14217;50.986;5.826;2023-12-20T14:14:48;100856.84;;;17.96;45.24
26563;BME280;14217;50.986;5.826;2023-12-20T14:19:50;100856.56;;;18.03;45.64
26563;BME280;14217;50.986;5.826;2023-12-20T14:24:53;100847.94;;;17.98;45.02
26563;BME280;14217;50.986;5.826;2023-12-20T14:29:56;100854.28;;;17.94;44.83
26563;BME280;14217;50.986;5.826;2023-12-20T14:34:58;100853.50;;;17.92;44.95
26563;BME280;14217;50.986;5.826;2023-12-20T14:40:00;100861.25;;;17.97;44.52
26563;BME280;14217;50.986;5.826;2023-12-20T14:45:03;100855.09;;;17.96;44.43
26563;BME280;14217;50.986;5.826;2023-12-20T14:50:06;100866.66;;;17.94;44.48
26563;BME280;14217;50.986;5.826;2023-12-20T14:55:09;100870.84;;;17.99;45.03
26563;BME280;14217;50.986;5.826;2023-12-20T15:00:11;100862.91;;;17.99;45.39
26563;BME280;14217;50.986;5.826;2023-12-20T15:05:18;100857.75;;;18.17;45.54
26563;BME280;14217;50.986;5.826;2023-12-20T15:10:20;100845.03;;;18.25;46.36
26563;BME280;14217;50.986;5.826;2023-12-20T15:15:23;100846.88;;;18.23;47.10
26563;BME280;14217;50.986;5.826;2023-12-20T15:20:25;100859.34;;;18.21;47.07
26563;BME280;14217;50.986;5.826;2023-12-20T15:25:27;100853.31;;;18.17;47.15
26563;BME280;14217;50.986;5.826;2023-12-20T15:30:30;100848.06;;;18.16;47.33
26563;BME280;14217;50.986;5.826;2023-12-20T15:35:32;100854.19;;;18.18;47.08
26563;BME280;14217;50.986;5.826;2023-12-20T15:40:34;100845.28;;;18.19;47.23
26563;BME280;14217;50.986;5.826;2023-12-20T15:45:36;100847.88;;;18.20;47.03
26563;BME280;14217;50.986;5.826;2023-12-20T15:50:38;100839.69;;;18.04;47.50
26563;BME280;14217;50.986;5.826;2023-12-20T15:55:40;100833.06;;;18.15;47.06
26563;BME280;14217;50.986;5.826;2023-12-20T16:00:43;100828.78;;;18.12;47.19
26563;BME280;14217;50.986;5.826;2023-12-20T16:05:45;100814.78;;;18.08;47.30
26563;BME280;14217;50.986;5.826;2023-12-20T16:10:47;100825.22;;;18.13;47.05
26563;BME280;14217;50.986;5.826;2023-12-20T16:15:49;100825.38;;;18.08;46.82
26563;BME280;14217;50.986;5.826;2023-12-20T16:20:52;100829.88;;;18.06;46.74
26563;BME280;14217;50.986;5.826;2023-12-20T16:25:54;100820.28;;;18.04;46.72
26563;BME280;14217;50.986;5.826;2023-12-20T16:30:55;100810.53;;;18.04;46.41
26563;BME280;14217;50.986;5.826;2023-12-20T16:35:58;100817.69;;;18.02;46.33
26563;BME280;14217;50.986;5.826;2023-12-20T16:41:00;100797.56;;;17.98;46.58
26563;BME280;14217;50.986;5.826;2023-12-20T16:46:03;100795.31;;;18.10;46.16
26563;BME280;14217;50.986;5.826;2023-12-20T16:51:07;100784.69;;;18.10;46.04
26563;BME280;14217;50.986;5.826;2023-12-20T16:56:09;100769.78;;;18.07;46.12
26563;BME280;14217;50.986;5.826;2023-12-20T17:01:11;100777.81;;;18.05;46.06
26563;BME280;14217;50.986;5.826;2023-12-20T17:06:15;100753.94;;;18.05;45.97
26563;BME280;14217;50.986;5.826;2023-12-20T17:11:17;100740.75;;;18.04;45.55
26563;BME280;14217;50.986;5.826;2023-12-20T17:16:20;100734.59;;;18.03;45.77
26563;BME280;14217;50.986;5.826;2023-12-20T17:21:22;100743.19;;;18.08;45.38
26563;BME280;14217;50.986;5.826;2023-12-20T17:26:24;100738.84;;;18.07;45.66
26563;BME280;14217;50.986;5.826;2023-12-20T17:31:27;100738.03;;;18.05;45.75
26563;BME280;14217;50.986;5.826;2023-12-20T17:36:29;100736.31;;;18.04;45.79
26563;BME280;14217;50.986;5.826;2023-12-20T17:41:31;100717.16;;;17.98;45.75
26563;BME280;14217;50.986;5.826;2023-12-20T17:46:37;100715.38;;;17.98;45.69
26563;BME280;14217;50.986;5.826;2023-12-20T17:51:39;100720.69;;;17.98;45.64
26563;BME280;14217;50.986;5.826;2023-12-20T17:56:43;100705.69;;;17.97;45.47
26563;BME280;14217;50.986;5.826;2023-12-20T18:01:45;100689.72;;;17.99;45.73
26563;BME280;14217;50.986;5.826;2023-12-20T18:06:47;100689.72;;;17.99;45.86
26563;BME280;14217;50.986;5.826;2023-12-20T18:11:49;100673.72;;;18.00;45.49
26563;BME280;14217;50.986;5.826;2023-12-20T18:16:51;100684.56;;;17.96;45.78
26563;BME280;14217;50.986;5.826;2023-12-20T18:21:53;100680.31;;;18.31;46.09
26563;BME280;14217;50.986;5.826;2023-12-20T18:26:56;100660.66;;;18.16;46.49
26563;BME280;14217;50.986;5.826;2023-12-20T18:31:58;100660.09;;;18.10;46.67
26563;BME280;14217;50.986;5.826;2023-12-20T18:37:00;100650.28;;;18.12;46.14
26563;BME280;14217;50.986;5.826;2023-12-20T18:42:02;100646.31;;;18.01;46.27
26563;BME280;14217;50.986;5.826;2023-12-20T18:47:06;100645.31;;;18.04;46.39
26563;BME280;14217;50.986;5.826;2023-12-20T18:52:08;100634.91;;;17.99;46.39
26563;BME280;14217;50.986;5.826;2023-12-20T18:57:10;100633.84;;;18.03;46.14
26563;BME280;14217;50.986;5.826;2023-12-20T19:02:13;100634.69;;;18.04;46.25
26563;BME280;14217;50.986;5.826;2023-12-20T19:07:15;100626.97;;;18.18;46.64
26563;BME280;14217;50.986;5.826;2023-12-20T19:12:17;100616.72;;;18.11;46.44
26563;BME280;14217;50.986;5.826;2023-12-20T19:17:19;100615.84;;;18.10;46.75
26563;BME280;14217;50.986;5.826;2023-12-20T19:22:22;100609.72;;;18.10;46.49
26563;BME280;14217;50.986;5.826;2023-12-20T19:27:24;100616.72;;;18.11;46.30
26563;BME280;14217;50.986;5.826;2023-12-20T19:32:27;100602.88;;;18.04;46.02
26563;BME280;14217;50.986;5.826;2023-12-20T19:37:29;100603.09;;;17.99;46.14
26563;BME280;14217;50.986;5.826;2023-12-20T19:42:32;100593.34;;;18.00;46.20
26563;BME280;14217;50.986;5.826;2023-12-20T19:47:38;100593.44;;;17.98;46.32
26563;BME280;14217;50.986;5.826;2023-12-20T19:52:40;100582.06;;;17.96;46.16
26563;BME280;14217;50.986;5.826;2023-12-20T19:57:42;100547.44;;;17.99;46.03
26563;BME280;14217;50.986;5.826;2023-12-20T20:02:44;100544.94;;;17.96;46.01
26563;BME280;14217;50.986;5.826;2023-12-20T20:07:46;100543.94;;;17.99;45.96
26563;BME280;14217;50.986;5.826;2023-12-20T20:12:49;100538.63;;;17.99;46.01
26563;BME280;14217;50.986;5.826;2023-12-20T20:17:51;100541.97;;;18.02;45.96
26563;BME280;14217;50.986;5.826;2023-12-20T20:22:53;100522.50;;;18.03;45.79
26563;BME280;14217;50.986;5.826;2023-12-20T20:27:55;100510.03;;;18.05;45.74
26563;BME280;14217;50.986;5.826;2023-12-20T20:32:57;100482.75;;;18.03;46.24
26563;BME280;14217;50.986;5.826;2023-12-20T20:38:00;100488.16;;;18.00;45.92
26563;BME280;14217;50.986;5.826;2023-12-20T20:43:02;100485.50;;;18.00;46.26
26563;BME280;14217;50.986;5.826;2023-12-20T20:48:05;100497.84;;;18.01;46.12
26563;BME280;14217;50.986;5.826;2023-12-20T20:53:25;100497.13;;;17.98;45.91
26563;BME280;14217;50.986;5.826;2023-12-20T20:58:27;100484.88;;;17.95;48.52
26563;BME280;14217;50.986;5.826;2023-12-20T21:03:30;100491.94;;;17.96;50.60
26563;BME280;14217;50.986;5.826;2023-12-20T21:08:31;100507.34;;;17.88;49.94
26563;BME280;14217;50.986;5.826;2023-12-20T21:13:34;100495.00;;;17.87;49.50
26563;BME280;14217;50.986;5.826;2023-12-20T21:18:36;100486.97;;;17.88;48.94
26563;BME280;14217;50.986;5.826;2023-12-20T21:23:38;100475.25;;;17.94;48.87
26563;BME280;14217;50.986;5.826;2023-12-20T21:28:40;100478.69;;;17.96;48.38
26563;BME280;14217;50.986;5.826;2023-12-20T21:33:43;100476.59;;;17.84;48.70
26563;BME280;14217;50.986;5.826;2023-12-20T21:38:45;100459.44;;;17.72;48.72
26563;BME280;14217;50.986;5.826;2023-12-20T21:43:47;100450.88;;;17.86;49.05
26563;BME280;14217;50.986;5.826;2023-12-20T21:48:52;100423.47;;;18.04;48.52
26563;BME280;14217;50.986;5.826;2023-12-20T21:53:54;100425.28;;;18.21;48.08
26563;BME280;14217;50.986;5.826;2023-12-20T21:59:01;100424.91;;;18.29;47.99
26563;BME280;14217;50.986;5.826;2023-12-20T22:04:03;100407.91;;;18.33;48.37
26563;BME280;14217;50.986;5.826;2023-12-20T22:09:06;100427.09;;;18.21;48.61
26563;BME280;14217;50.986;5.826;2023-12-20T22:14:10;100435.03;;;18.21;48.46
26563;BME280;14217;50.986;5.826;2023-12-20T22:19:12;100436.13;;;18.17;48.13
26563;BME280;14217;50.986;5.826;2023-12-20T22:24:14;100442.38;;;18.16;48.00
26563;BME280;14217;50.986;5.826;2023-12-20T22:29:17;100440.66;;;18.15;47.81
26563;BME280;14217;50.986;5.826;2023-12-20T22:34:19;100424.84;;;18.13;47.84
26563;BME280;14217;50.986;5.826;2023-12-20T22:39:21;100422.19;;;18.13;47.61
26563;BME280;14217;50.986;5.826;2023-12-20T22:44:24;100417.66;;;18.15;47.57
26563;BME280;14217;50.986;5.826;2023-12-20T22:49:26;100405.50;;;18.11;47.60
26563;BME280;14217;50.986;5.826;2023-12-20T22:54:28;100399.25;;;18.12;47.51
26563;BME280;14217;50.986;5.826;2023-12-20T22:59:30;100406.28;;;18.13;47.19
26563;BME280;14217;50.986;5.826;2023-12-20T23:04:32;100408.94;;;18.13;47.43
26563;BME280;14217;50.986;5.826;2023-12-20T23:09:36;100385.06;;;18.13;47.20
26563;BME280;14217;50.986;5.826;2023-12-20T23:14:39;100383.41;;;18.11;47.21
26563;BME280;14217;50.986;5.826;2023-12-20T23:19:41;100363.84;;;18.13;47.27
26563;BME280;14217;50.986;5.826;2023-12-20T23:24:43;100354.94;;;18.14;46.91
26563;BME280;14217;50.986;5.826;2023-12-20T23:29:45;100346.06;;;18.15;46.99
26563;BME280;14217;50.986;5.826;2023-12-20T23:34:48;100318.22;;;18.06;47.04
26563;BME280;14217;50.986;5.826;2023-12-20T23:40:09;100312.69;;;18.11;46.86
26563;BME280;14217;50.986;5.826;2023-12-20T23:45:11;100325.72;;;18.16;47.00
26563;BME280;14217;50.986;5.826;2023-12-20T23:50:14;100313.38;;;18.15;46.93
26563;BME280;14217;50.986;5.826;2023-12-20T23:55:18;100316.13;;;18.13;46.76
